createdAt,value
2018-07-30T00:02:18.687Z,20.90
2018-07-30T00:04:47.547Z,20.90
2018-07-30T00:07:16.327Z,20.80
2018-07-30T00:09:45.105Z,20.70
2018-07-30T00:12:13.866Z,20.80
2018-07-30T00:14:42.590Z,20.80
2018-07-30T00:17:11.281Z,21.00
2018-07-30T00:19:40.136Z,21.00
2018-07-30T00:22:08.914Z,21.20
2018-07-30T00:24:37.579Z,21.30
2018-07-30T00:27:06.400Z,21.40
2018-07-30T00:29:35.151Z,21.40
2018-07-30T00:32:05.015Z,21.40
2018-07-30T00:34:34.784Z,21.50
2018-07-30T00:37:03.660Z,21.60
2018-07-30T00:39:32.442Z,21.60
2018-07-30T00:42:01.148Z,21.70
2018-07-30T00:44:29.998Z,21.70
2018-07-30T00:46:58.860Z,21.80
2018-07-30T00:49:27.676Z,21.60
2018-07-30T00:51:56.481Z,21.40
2018-07-30T00:54:25.236Z,21.30
2018-07-30T00:56:54.249Z,21.30
2018-07-30T00:59:22.995Z,21.20
2018-07-30T01:01:51.984Z,21.10
2018-07-30T01:04:20.904Z,21.00
2018-07-30T01:09:23.133Z,21.00
2018-07-30T01:11:51.934Z,21.00
2018-07-30T01:14:20.743Z,20.80
2018-07-30T01:16:49.441Z,20.80
2018-07-30T01:19:19.136Z,20.90
2018-07-30T01:21:48.762Z,20.80
2018-07-30T01:24:17.548Z,20.90
2018-07-30T01:26:46.187Z,21.00
2018-07-30T01:29:14.990Z,21.00
2018-07-30T01:31:43.773Z,21.00
2018-07-30T01:34:12.529Z,20.80
2018-07-30T01:36:42.339Z,20.70
2018-07-30T01:39:11.263Z,20.70
2018-07-30T01:41:40.007Z,20.70
2018-07-30T01:44:08.752Z,20.70
2018-07-30T01:46:37.632Z,20.70
2018-07-30T01:49:06.359Z,20.60
2018-07-30T01:51:35.133Z,20.50
2018-07-30T01:54:03.868Z,20.30
2018-07-30T01:56:32.613Z,20.40
2018-07-30T01:59:01.302Z,20.40
2018-07-30T02:01:30.036Z,20.30
2018-07-30T02:03:58.756Z,20.40
2018-07-30T02:06:27.486Z,20.50
2018-07-30T02:08:56.173Z,20.50
2018-07-30T02:11:25.281Z,20.40
2018-07-30T02:13:53.975Z,20.40
2018-07-30T02:16:23.802Z,20.50
2018-07-30T02:18:52.596Z,20.40
2018-07-30T02:21:21.302Z,20.30
2018-07-30T02:23:51.100Z,20.30
2018-07-30T02:26:19.821Z,20.30
2018-07-30T02:28:48.617Z,20.10
2018-07-30T02:31:17.321Z,20.10
2018-07-30T02:33:46.013Z,20.10
2018-07-30T02:36:15.724Z,20.10
2018-07-30T02:38:45.448Z,20.00
2018-07-30T02:41:15.215Z,20.00
2018-07-30T02:43:44.022Z,20.00
2018-07-30T02:46:12.791Z,20.00
2018-07-30T02:48:41.428Z,19.90
2018-07-30T02:51:10.142Z,19.80
2018-07-30T02:56:07.216Z,19.70
2018-07-30T02:58:35.914Z,19.70
2018-07-30T03:01:04.702Z,19.60
2018-07-30T03:03:34.134Z,19.40
2018-07-30T03:06:03.763Z,19.50
2018-07-30T03:08:32.615Z,19.40
2018-07-30T03:11:01.445Z,19.40
2018-07-30T03:13:30.181Z,19.50
2018-07-30T03:15:58.941Z,19.50
2018-07-30T03:18:27.837Z,19.50
2018-07-30T03:20:56.694Z,19.40
2018-07-30T03:23:25.413Z,19.30
2018-07-30T03:25:55.203Z,19.30
2018-07-30T03:28:23.996Z,19.30
2018-07-30T03:30:52.797Z,19.20
2018-07-30T03:33:21.530Z,19.20
2018-07-30T03:35:50.270Z,19.10
2018-07-30T03:38:18.994Z,19.00
2018-07-30T03:40:47.699Z,19.10
2018-07-30T03:43:17.536Z,19.20
2018-07-30T03:45:46.279Z,19.30
2018-07-30T03:48:15.010Z,19.30
2018-07-30T03:50:44.544Z,19.20
2018-07-30T03:53:13.482Z,19.20
2018-07-30T03:55:42.158Z,19.20
2018-07-30T03:58:10.908Z,19.20
2018-07-30T04:00:39.675Z,19.10
2018-07-30T04:03:08.387Z,19.10
2018-07-30T04:05:37.151Z,19.00
2018-07-30T04:08:05.921Z,19.10
2018-07-30T04:10:34.701Z,19.10
2018-07-30T04:13:03.686Z,19.30
2018-07-30T04:15:32.552Z,19.20
2018-07-30T04:18:01.258Z,19.30
2018-07-30T04:20:30.012Z,19.40
2018-07-30T04:22:58.816Z,19.50
2018-07-30T04:25:27.750Z,19.70
2018-07-30T04:28:00.632Z,19.80
2018-07-30T04:30:30.331Z,19.90
2018-07-30T04:32:59.033Z,20.00
2018-07-30T04:35:27.753Z,20.30
2018-07-30T04:37:56.406Z,20.70
2018-07-30T04:40:26.090Z,21.10
2018-07-30T04:42:54.946Z,21.50
2018-07-30T04:45:23.610Z,21.60
2018-07-30T04:47:52.386Z,21.80
2018-07-30T04:50:21.113Z,21.90
2018-07-30T04:52:49.915Z,22.30
2018-07-30T04:55:18.643Z,22.80
2018-07-30T04:57:47.395Z,23.10
2018-07-30T05:00:16.072Z,23.20
2018-07-30T05:02:44.826Z,23.50
2018-07-30T05:05:13.513Z,23.90
2018-07-30T05:07:42.176Z,24.20
2018-07-30T05:10:10.924Z,24.70
2018-07-30T05:12:39.736Z,25.10
2018-07-30T05:15:08.506Z,25.20
2018-07-30T05:17:37.224Z,25.10
2018-07-30T05:20:06.165Z,25.20
2018-07-30T05:22:35.063Z,25.10
2018-07-30T05:25:03.929Z,25.30
2018-07-30T05:27:32.663Z,25.30
2018-07-30T05:30:01.422Z,24.80
2018-07-30T05:32:30.122Z,24.20
2018-07-30T05:34:58.852Z,23.80
2018-07-30T05:37:27.589Z,23.60
2018-07-30T05:39:56.337Z,23.50
2018-07-30T05:42:25.041Z,23.30
2018-07-30T05:44:53.779Z,23.20
2018-07-30T05:47:22.457Z,23.30
2018-07-30T05:49:53.277Z,23.30
2018-07-30T05:52:21.953Z,23.10
2018-07-30T05:54:50.816Z,22.90
2018-07-30T05:57:19.562Z,22.80
2018-07-30T05:59:49.335Z,22.80
2018-07-30T06:02:18.043Z,22.80
2018-07-30T06:04:46.747Z,22.70
2018-07-30T06:07:15.449Z,22.80
2018-07-30T06:09:44.432Z,22.90
2018-07-30T06:12:13.107Z,22.80
2018-07-30T06:14:41.893Z,22.80
2018-07-30T06:17:10.738Z,22.70
2018-07-30T06:22:07.793Z,22.70
2018-07-30T06:24:36.581Z,22.80
2018-07-30T06:27:05.677Z,22.90
2018-07-30T06:29:34.339Z,23.00
2018-07-30T06:32:03.044Z,23.30
2018-07-30T06:34:31.823Z,23.80
2018-07-30T06:37:01.054Z,24.10
2018-07-30T06:39:38.250Z,24.00
2018-07-30T06:42:06.935Z,24.40
2018-07-30T06:44:35.684Z,24.50
2018-07-30T06:47:04.512Z,24.90
2018-07-30T06:49:33.276Z,25.20
2018-07-30T06:52:02.118Z,25.30
2018-07-30T06:54:30.895Z,25.10
2018-07-30T06:56:59.637Z,25.40
2018-07-30T06:59:28.324Z,25.60
2018-07-30T07:01:57.224Z,26.10
2018-07-30T07:04:25.879Z,27.30
2018-07-30T07:06:54.595Z,26.90
2018-07-30T07:09:23.498Z,26.90
2018-07-30T07:11:52.178Z,26.50
2018-07-30T07:14:21.885Z,26.20
2018-07-30T07:16:50.683Z,25.90
2018-07-30T07:19:19.741Z,25.60
2018-07-30T07:21:48.502Z,25.50
2018-07-30T07:24:18.266Z,25.60
2018-07-30T07:26:47.074Z,25.70
2018-07-30T07:29:15.850Z,26.00
2018-07-30T07:31:44.643Z,25.80
2018-07-30T07:34:15.342Z,26.00
2018-07-30T07:36:44.170Z,26.40
2018-07-30T07:39:12.956Z,26.10
2018-07-30T07:41:41.742Z,26.10
2018-07-30T07:44:10.483Z,25.80
2018-07-30T07:49:07.573Z,25.70
2018-07-30T07:51:36.432Z,26.10
2018-07-30T07:54:05.259Z,26.20
2018-07-30T07:56:33.989Z,26.00
2018-07-30T07:59:03.753Z,26.20
2018-07-30T08:01:32.490Z,26.00
2018-07-30T08:04:01.267Z,25.80
2018-07-30T08:06:30.082Z,25.60
2018-07-30T08:08:58.793Z,25.60
2018-07-30T08:11:27.510Z,25.80
2018-07-30T08:13:56.601Z,25.90
2018-07-30T08:16:25.466Z,25.70
2018-07-30T08:18:54.259Z,25.60
2018-07-30T08:21:22.968Z,25.50
2018-07-30T08:23:51.741Z,25.60
2018-07-30T08:26:20.550Z,25.80
2018-07-30T08:28:49.891Z,25.90
2018-07-30T08:31:18.756Z,26.10
2018-07-30T08:33:47.629Z,26.50
2018-07-30T08:36:16.328Z,26.40
2018-07-30T08:38:45.193Z,26.40
2018-07-30T08:41:13.986Z,26.40
2018-07-30T08:43:42.659Z,26.80
2018-07-30T08:46:12.161Z,26.30
2018-07-30T08:48:41.054Z,26.60
2018-07-30T08:51:09.794Z,26.80
2018-07-30T08:53:38.605Z,26.80
2018-07-30T08:56:07.433Z,26.40
2018-07-30T09:01:04.814Z,26.20
2018-07-30T09:03:33.501Z,26.20
2018-07-30T09:06:02.350Z,26.30
2018-07-30T09:08:31.118Z,26.40
2018-07-30T09:10:59.880Z,26.20
2018-07-30T09:15:56.938Z,26.50
2018-07-30T09:18:25.841Z,27.00
2018-07-30T09:20:54.547Z,26.80
2018-07-30T09:23:23.285Z,26.50
2018-07-30T09:25:52.038Z,26.50
2018-07-30T09:30:49.292Z,27.00
2018-07-30T09:33:18.096Z,26.90
2018-07-30T09:35:46.760Z,27.20
2018-07-30T09:38:15.510Z,26.80
2018-07-30T09:40:44.227Z,26.80
2018-07-30T09:43:12.957Z,27.20
2018-07-30T09:45:41.645Z,27.20
2018-07-30T09:48:10.373Z,27.90
2018-07-30T09:50:39.151Z,28.10
2018-07-30T09:53:07.921Z,27.80
2018-07-30T09:55:36.608Z,27.70
2018-07-30T09:58:06.342Z,28.00
2018-07-30T10:00:40.407Z,28.40
2018-07-30T10:03:09.149Z,28.60
2018-07-30T10:05:37.844Z,28.60
2018-07-30T10:08:06.632Z,28.40
2018-07-30T10:13:03.737Z,28.90
2018-07-30T10:15:32.449Z,29.00
2018-07-30T10:18:01.215Z,28.60
2018-07-30T10:20:29.915Z,28.80
2018-07-30T10:22:58.645Z,28.60
2018-07-30T10:25:27.319Z,28.60
2018-07-30T10:27:56.054Z,28.60
2018-07-30T10:30:24.944Z,28.70
2018-07-30T10:32:53.664Z,28.60
2018-07-30T10:35:22.593Z,28.60
2018-07-30T10:37:51.655Z,28.50
2018-07-30T10:40:20.521Z,28.80
2018-07-30T10:42:49.221Z,29.20
2018-07-30T10:45:17.961Z,29.00
2018-07-30T10:47:46.732Z,28.80
2018-07-30T10:50:15.502Z,28.60
2018-07-30T10:52:44.799Z,28.90
2018-07-30T10:55:13.630Z,28.60
2018-07-30T10:57:42.427Z,28.70
2018-07-30T11:00:11.111Z,28.80
2018-07-30T11:02:39.855Z,28.90
2018-07-30T11:05:08.561Z,29.00
2018-07-30T11:07:37.257Z,29.40
2018-07-30T11:10:06.072Z,29.60
2018-07-30T11:12:34.811Z,29.40
2018-07-30T11:15:04.820Z,29.50
2018-07-30T11:17:33.503Z,29.30
2018-07-30T11:20:02.335Z,29.70
2018-07-30T11:22:31.973Z,29.50
2018-07-30T11:25:00.711Z,30.00
2018-07-30T11:27:29.477Z,29.60
2018-07-30T11:29:58.128Z,29.80
2018-07-30T11:32:26.848Z,29.80
2018-07-30T11:34:55.604Z,30.20
2018-07-30T11:37:24.310Z,30.30
2018-07-30T11:39:53.051Z,30.20
2018-07-30T11:42:21.768Z,30.00
2018-07-30T11:44:50.573Z,29.70
2018-07-30T11:47:19.389Z,29.90
2018-07-30T11:49:48.101Z,30.00
2018-07-30T11:52:16.792Z,29.60
2018-07-30T11:54:45.578Z,29.90
2018-07-30T11:57:16.847Z,29.90
2018-07-30T11:59:45.530Z,29.80
2018-07-30T12:02:14.357Z,29.80
2018-07-30T12:04:43.062Z,30.00
2018-07-30T12:07:11.743Z,29.90
2018-07-30T12:09:40.550Z,30.20
2018-07-30T12:12:10.231Z,30.40
2018-07-30T12:14:38.901Z,30.20
2018-07-30T12:17:07.617Z,30.20
2018-07-30T12:19:36.293Z,30.00
2018-07-30T12:22:05.038Z,30.20
2018-07-30T12:24:33.847Z,30.60
2018-07-30T12:27:02.536Z,30.70
2018-07-30T12:32:00.620Z,30.50
2018-07-30T12:34:29.260Z,30.70
2018-07-30T12:36:58.078Z,30.80
2018-07-30T12:39:26.769Z,30.80
2018-07-30T12:41:56.596Z,30.90
2018-07-30T12:44:25.230Z,31.40
2018-07-30T12:46:54.008Z,31.40
2018-07-30T12:49:23.686Z,31.10
2018-07-30T12:51:54.447Z,30.90
2018-07-30T12:54:24.170Z,30.80
2018-07-30T12:56:52.910Z,30.90
2018-07-30T12:59:21.510Z,31.20
2018-07-30T13:01:50.310Z,31.10
2018-07-30T13:04:19.008Z,30.90
2018-07-30T13:06:47.772Z,31.20
2018-07-30T13:09:16.521Z,31.50
2018-07-30T13:11:45.313Z,31.60
2018-07-30T13:14:13.989Z,31.70
2018-07-30T13:16:42.778Z,31.50
2018-07-30T13:19:11.487Z,31.40
2018-07-30T13:21:40.324Z,31.50
2018-07-30T13:24:09.092Z,31.30
2018-07-30T13:26:38.045Z,31.20
2018-07-30T13:29:06.671Z,31.10
2018-07-30T13:34:03.817Z,31.50
2018-07-30T13:36:32.595Z,31.20
2018-07-30T13:39:01.363Z,31.10
2018-07-30T13:41:30.154Z,30.90
2018-07-30T13:43:58.867Z,30.90
2018-07-30T13:46:27.685Z,30.80
2018-07-30T13:48:56.323Z,30.80
2018-07-30T13:51:25.111Z,31.30
2018-07-30T13:53:53.826Z,31.30
2018-07-30T13:56:22.592Z,31.20
2018-07-30T13:58:51.366Z,31.30
2018-07-30T14:01:21.053Z,31.10
2018-07-30T14:03:50.748Z,31.20
2018-07-30T14:06:19.517Z,31.30
2018-07-30T14:08:49.005Z,31.60
2018-07-30T14:13:46.942Z,31.60
2018-07-30T14:16:15.707Z,31.40
2018-07-30T14:18:44.506Z,31.50
2018-07-30T14:21:13.175Z,31.50
2018-07-30T14:23:42.962Z,31.40
2018-07-30T14:26:11.789Z,31.30
2018-07-30T14:28:40.511Z,31.30
2018-07-30T14:31:09.212Z,31.30
2018-07-30T14:33:38.014Z,31.40
2018-07-30T14:36:06.702Z,31.20
2018-07-30T14:38:35.669Z,31.20
2018-07-30T14:41:04.371Z,31.20
2018-07-30T14:43:33.201Z,31.10
2018-07-30T14:46:01.979Z,31.30
2018-07-30T14:48:31.287Z,31.20
2018-07-30T14:51:00.024Z,31.20
2018-07-30T14:53:28.826Z,31.20
2018-07-30T14:55:57.671Z,31.20
2018-07-30T14:58:26.546Z,31.20
2018-07-30T15:00:55.294Z,31.60
2018-07-30T15:03:24.079Z,31.40
2018-07-30T15:05:52.986Z,31.60
2018-07-30T15:08:30.313Z,31.40
2018-07-30T15:10:59.113Z,31.60
2018-07-30T15:15:56.205Z,31.80
2018-07-30T15:18:24.859Z,31.70
2018-07-30T15:20:53.630Z,31.60
2018-07-30T15:23:22.422Z,31.80
2018-07-30T15:25:51.706Z,31.90
2018-07-30T15:28:20.347Z,32.00
2018-07-30T15:30:49.089Z,31.90
2018-07-30T15:33:18.767Z,32.10
2018-07-30T15:35:47.454Z,32.00
2018-07-30T15:38:17.740Z,31.70
2018-07-30T15:40:46.494Z,32.00
2018-07-30T15:43:15.192Z,31.90
2018-07-30T15:45:44.021Z,31.70
2018-07-30T15:48:12.779Z,31.60
2018-07-30T15:50:41.408Z,31.60
2018-07-30T15:53:11.187Z,31.60
2018-07-30T15:55:39.877Z,31.50
2018-07-30T15:58:08.595Z,31.50
2018-07-30T16:00:37.248Z,31.50
2018-07-30T16:03:06.076Z,31.70
2018-07-30T16:05:35.817Z,31.80
2018-07-30T16:08:04.884Z,31.50
2018-07-30T16:10:33.623Z,31.80
2018-07-30T16:13:02.355Z,31.70
2018-07-30T16:15:31.064Z,31.70
2018-07-30T16:17:59.808Z,31.70
2018-07-30T16:20:28.482Z,31.60
2018-07-30T16:22:57.279Z,31.60
2018-07-30T16:25:26.440Z,31.80
2018-07-30T16:27:55.124Z,31.60
2018-07-30T16:30:23.946Z,31.40
2018-07-30T16:32:52.668Z,31.20
2018-07-30T16:35:21.421Z,31.30
2018-07-30T16:37:50.365Z,31.20
2018-07-30T16:40:19.093Z,31.20
2018-07-30T16:42:47.869Z,31.20
2018-07-30T16:45:16.674Z,31.40
2018-07-30T16:47:45.569Z,31.40
2018-07-30T16:50:14.298Z,31.40
2018-07-30T16:52:43.097Z,31.50
2018-07-30T16:55:16.892Z,31.50
2018-07-30T16:57:45.697Z,31.50
2018-07-30T17:02:43.715Z,31.50
2018-07-30T17:05:12.757Z,31.50
2018-07-30T17:07:41.399Z,31.40
2018-07-30T17:10:10.164Z,31.40
2018-07-30T17:12:38.986Z,31.50
2018-07-30T17:15:07.864Z,31.60
2018-07-30T17:17:36.626Z,31.60
2018-07-30T17:20:07.589Z,31.60
2018-07-30T17:22:36.377Z,31.60
2018-07-30T17:25:05.168Z,31.70
2018-07-30T17:27:34.241Z,31.80
2018-07-30T17:30:03.167Z,31.80
2018-07-30T17:32:32.011Z,31.80
2018-07-30T17:35:02.210Z,31.80
2018-07-30T17:37:30.999Z,31.50
2018-07-30T17:39:59.886Z,31.50
2018-07-30T17:42:30.556Z,31.40
2018-07-30T17:45:02.392Z,31.30
2018-07-30T17:47:31.267Z,31.10
2018-07-30T17:50:00.374Z,31.10
2018-07-30T17:52:29.264Z,31.00
2018-07-30T17:54:58.234Z,30.90
2018-07-30T17:57:27.194Z,30.60
2018-07-30T17:59:56.996Z,30.40
2018-07-30T18:02:26.346Z,30.20
2018-07-30T18:04:55.123Z,30.10
2018-07-30T18:07:24.918Z,30.20
2018-07-30T18:09:53.773Z,30.20
2018-07-30T18:12:22.571Z,30.10
2018-07-30T18:14:51.390Z,29.80
2018-07-30T18:17:20.212Z,29.50
2018-07-30T18:19:48.844Z,29.40
2018-07-30T18:22:18.184Z,29.30
2018-07-30T18:24:47.046Z,29.10
2018-07-30T18:27:15.891Z,28.90
2018-07-30T18:29:44.657Z,28.60
2018-07-30T18:32:13.571Z,28.50
2018-07-30T18:34:42.280Z,28.40
2018-07-30T18:37:12.058Z,28.10
2018-07-30T18:39:40.868Z,27.90
2018-07-30T18:42:10.793Z,27.70
2018-07-30T18:44:39.544Z,27.60
2018-07-30T18:47:08.355Z,27.50
2018-07-30T18:49:37.052Z,27.40
2018-07-30T18:52:05.780Z,27.40
2018-07-30T18:54:35.157Z,27.30
2018-07-30T18:57:03.976Z,27.30
2018-07-30T18:59:33.719Z,27.30
2018-07-30T19:02:02.418Z,27.30
2018-07-30T19:04:31.167Z,27.30
2018-07-30T19:06:59.974Z,27.20
2018-07-30T19:09:28.972Z,27.10
2018-07-30T19:11:57.709Z,27.00
2018-07-30T19:14:26.770Z,26.90
2018-07-30T19:16:55.602Z,26.80
2018-07-30T19:19:24.413Z,26.70
2018-07-30T19:21:53.417Z,26.60
2018-07-30T19:24:22.344Z,26.60
2018-07-30T19:26:51.111Z,26.50
2018-07-30T19:29:19.926Z,26.50
2018-07-30T19:31:49.980Z,26.50
2018-07-30T19:34:18.782Z,26.30
2018-07-30T19:36:47.635Z,26.20
2018-07-30T19:39:17.657Z,26.10
2018-07-30T19:41:46.445Z,26.00
2018-07-30T19:44:15.667Z,25.90
2018-07-30T19:46:44.424Z,25.80
2018-07-30T19:49:13.137Z,25.80
2018-07-30T19:51:42.319Z,25.90
2018-07-30T19:54:11.387Z,25.90
2018-07-30T19:56:41.213Z,25.80
2018-07-30T19:59:10.459Z,25.80
2018-07-30T20:01:40.192Z,25.70
2018-07-30T20:04:09.047Z,25.60
2018-07-30T20:06:38.004Z,25.40
2018-07-30T20:09:10.378Z,25.30
2018-07-30T20:11:39.124Z,25.30
2018-07-30T20:14:08.318Z,25.10
2018-07-30T20:16:38.158Z,24.80
2018-07-30T20:19:07.949Z,24.80
2018-07-30T20:21:36.859Z,24.70
2018-07-30T20:24:06.078Z,24.60
2018-07-30T20:26:34.949Z,24.60
2018-07-30T20:29:03.991Z,24.50
2018-07-30T20:31:32.784Z,24.70
2018-07-30T20:34:02.654Z,24.60
2018-07-30T20:36:32.389Z,24.60
2018-07-30T20:39:01.455Z,24.50
2018-07-30T20:41:30.353Z,24.50
2018-07-30T20:43:59.122Z,24.50
2018-07-30T20:46:31.060Z,24.50
2018-07-30T20:49:00.852Z,24.50
2018-07-30T20:51:29.676Z,24.40
2018-07-30T20:53:58.404Z,24.50
2018-07-30T20:56:27.164Z,24.40
2018-07-30T20:58:56.007Z,24.40
2018-07-30T21:01:24.733Z,24.40
2018-07-30T21:03:53.631Z,24.40
2018-07-30T21:06:22.311Z,24.30
2018-07-30T21:08:51.106Z,24.40
2018-07-30T21:11:20.462Z,24.60
2018-07-30T21:13:49.220Z,24.40
2018-07-30T21:16:19.000Z,24.30
2018-07-30T21:18:48.043Z,24.20
2018-07-30T21:21:16.940Z,24.00
2018-07-30T21:23:45.711Z,24.00
2018-07-30T21:26:15.465Z,23.90
2018-07-30T21:28:45.251Z,23.80
2018-07-30T21:31:14.150Z,23.80
2018-07-30T21:33:42.978Z,23.70
2018-07-30T21:36:11.724Z,23.70
2018-07-30T21:38:40.592Z,23.60
2018-07-30T21:43:37.665Z,23.30
2018-07-30T21:46:06.421Z,23.40
2018-07-30T21:48:36.263Z,23.40
2018-07-30T21:51:05.766Z,23.50
2018-07-30T21:53:36.251Z,23.50
2018-07-30T21:56:05.384Z,23.50
2018-07-30T21:58:34.120Z,23.60
2018-07-30T22:01:02.922Z,23.40
2018-07-30T22:03:33.590Z,23.30
2018-07-30T22:06:03.421Z,23.30
2018-07-30T22:08:32.266Z,23.20
2018-07-30T22:11:01.030Z,23.10
2018-07-30T22:13:30.888Z,23.10
2018-07-30T22:15:59.748Z,22.70
2018-07-30T22:20:56.811Z,22.40
2018-07-30T22:23:25.553Z,22.50
2018-07-30T22:25:54.333Z,22.50
2018-07-30T22:28:26.293Z,22.50
2018-07-30T22:30:56.069Z,22.60
2018-07-30T22:33:25.766Z,22.50
2018-07-30T22:35:54.578Z,22.60
2018-07-30T22:38:23.304Z,22.50
2018-07-30T22:40:52.005Z,22.40
2018-07-30T22:43:21.742Z,22.30
2018-07-30T22:45:50.502Z,22.20
2018-07-30T22:48:19.199Z,22.20
2018-07-30T22:50:48.055Z,22.10
2018-07-30T22:53:16.780Z,22.00
2018-07-30T22:55:46.488Z,21.80
2018-07-30T22:58:16.097Z,21.60
2018-07-30T23:00:44.974Z,21.50
2018-07-30T23:03:14.472Z,21.50
2018-07-30T23:05:43.726Z,21.50
2018-07-30T23:08:12.520Z,21.40
2018-07-30T23:10:42.347Z,21.30
2018-07-30T23:13:11.117Z,21.30
2018-07-30T23:15:39.845Z,21.20
2018-07-30T23:18:08.866Z,21.30
2018-07-30T23:20:37.767Z,21.20
2018-07-30T23:23:06.553Z,21.40
2018-07-30T23:25:35.445Z,21.60
2018-07-30T23:28:04.236Z,21.70
2018-07-30T23:30:33.859Z,21.70
2018-07-30T23:33:02.596Z,21.70
2018-07-30T23:35:31.467Z,21.60
2018-07-30T23:38:01.260Z,21.50
2018-07-30T23:40:30.028Z,21.50
2018-07-30T23:42:58.833Z,21.50
2018-07-30T23:45:27.534Z,21.60
2018-07-30T23:47:56.263Z,21.40
2018-07-30T23:50:25.173Z,21.40
2018-07-30T23:52:53.977Z,21.50
2018-07-30T23:55:22.739Z,21.70
2018-07-30T23:57:51.556Z,21.70
